Terminal Aerodrome Forecast
Issued by NWS

Home | Current Version | Previous Version | Graphics & Text | Print | Product List | Glossary On
Versions: 1 2 3 4 5 6 7 8 9 10 11 12 13 14 15 16 17 18 19 20 21 22 23 24
624
FTUS43 KGRB 181720
TAFRHI
TAF
KRHI 181720Z 1818/1918 21014G23KT P6SM SCT250
     FM182200 23010KT P6SM SCT200 WS020/24035KT
     FM190300 27006KT P6SM SKC=

USA.gov is the U.S. government's official web portal to all federal, state and local government web resources and services.